Time;durP1;ratioP1;P1;durP2;ratioP2;P2;SDS_P1;SDS_P2;PMS_P1;PMS_P2;Temp;Humidity;BMP_temperature;BMP_pressure;BME280_temperature;BME280_humidity;BME280_pressure;Samples;Min_cycle;Max_cycle;Signal;HPM_P1;HPM_P2
2021/06/19 00:00:34;;;;;;;6.65;1.60;;;;;;;19.72;67.09;100468.37;1717448;83;21220;-74
2021/06/19 00:03:03;;;;;;;10.53;1.77;;;;;;;19.68;66.99;100469.56;1717438;81;21165;-73
2021/06/19 00:05:31;;;;;;;5.67;1.50;;;;;;;19.64;67.37;100473.50;1724548;82;21137;-81
2021/06/19 00:08:00;;;;;;;3.60;1.52;;;;;;;19.61;67.39;100474.09;1706666;82;21259;-80
2021/06/19 00:10:29;;;;;;;6.20;1.70;;;;;;;19.61;67.54;100474.09;1750058;80;21133;-72
2021/06/19 00:12:57;;;;;;;4.50;1.60;;;;;;;19.60;67.34;100468.86;1738495;82;21619;-73
2021/06/19 00:15:25;;;;;;;9.93;1.60;;;;;;;19.59;67.34;100469.41;1717710;80;21531;-80
2021/06/19 00:17:54;;;;;;;4.47;1.55;;;;;;;19.57;67.35;100475.01;1712480;83;21165;-73
2021/06/19 00:20:24;;;;;;;6.28;1.60;;;;;;;19.54;67.58;100475.61;1719072;80;21230;-82
2021/06/19 00:22:52;;;;;;;4.42;1.67;;;;;;;19.49;67.25;100471.52;1718811;82;21133;-75
2021/06/19 00:25:21;;;;;;;;;;;;;;;19.47;67.48;100476.00;1721918;80;21575;-83
2021/06/19 00:27:49;;;;;;;4.72;1.62;;;;;;;19.46;67.76;100472.13;1722593;82;20189;-74
2021/06/19 00:30:18;;;;;;;4.50;1.75;;;;;;;19.43;67.75;100469.98;1727203;80;21152;-75
2021/06/19 00:32:46;;;;;;;4.72;1.72;;;;;;;19.43;68.10;100472.75;1712492;83;21625;-74
2021/06/19 00:35:14;;;;;;;3.85;1.62;;;;;;;19.39;68.21;100471.13;1712782;80;21646;-74
2021/06/19 00:37:42;;;;;;;6.45;1.80;;;;;;;19.38;68.14;100469.47;1712494;84;21772;-75
2021/06/19 00:40:12;;;;;;;5.40;1.32;;;;;;;19.34;68.27;100465.62;1714031;80;21164;-74
2021/06/19 00:42:41;;;;;;;4.28;1.67;;;;;;;19.33;68.20;100473.67;1689077;85;21243;-76
2021/06/19 00:45:09;;;;;;;6.03;1.77;;;;;;;19.33;68.74;100470.08;1687785;85;21174;-74
2021/06/19 00:47:39;;;;;;;4.90;1.32;;;;;;;19.30;68.17;100474.27;1688887;83;21679;-75
2021/06/19 00:50:08;;;;;;;6.22;1.52;;;;;;;19.28;68.21;100473.76;1722252;81;21688;-75
2021/06/19 00:52:36;;;;;;;5.15;1.65;;;;;;;19.25;68.94;100478.52;1725336;82;21112;-74
2021/06/19 00:55:06;;;;;;;10.43;1.75;;;;;;;19.23;68.78;100476.61;1739541;82;21198;-81
2021/06/19 00:57:33;;;;;;;5.65;1.42;;;;;;;19.20;68.55;100479.17;1716482;80;21661;-73
2021/06/19 01:00:01;;;;;;;5.35;1.70;;;;;;;19.19;68.70;100481.13;1712463;84;21634;-82
2021/06/19 01:02:29;;;;;;;5.80;2.08;;;;;;;19.16;68.69;100479.50;1712895;80;21263;-75
2021/06/19 01:04:57;;;;;;;7.53;1.80;;;;;;;19.14;68.83;100481.75;1712531;84;21164;-74
2021/06/19 01:07:25;;;;;;;10.13;1.80;;;;;;;19.13;68.97;100482.86;1713959;80;21495;-74
2021/06/19 01:09:53;;;;;;;10.03;1.92;;;;;;;19.13;68.83;100483.70;1712793;84;21591;-76
2021/06/19 01:12:24;;;;;;;8.33;2.00;;;;;;;19.10;68.82;100475.97;1712628;80;21133;-82
2021/06/19 01:14:54;;;;;;;4.72;1.60;;;;;;;19.09;68.92;100485.98;1695189;83;21383;-74
2021/06/19 01:17:22;;;;;;;8.63;1.57;;;;;;;19.06;69.10;100488.80;1734197;80;21239;-74
2021/06/19 01:20:09;;;;;;;5.15;1.70;;;;;;;19.01;69.11;100489.70;1728816;82;21261;-81
2021/06/19 01:22:41;;;;;;;6.90;1.67;;;;;;;18.99;69.50;100484.19;1689324;80;23079;-73
2021/06/19 01:25:13;;;;;;;8.18;1.70;;;;;;;18.94;69.57;100489.25;1712540;84;21275;-74
2021/06/19 01:27:42;;;;;;;3.77;1.50;;;;;;;18.89;69.68;100488.48;1717681;80;21164;-80
2021/06/19 01:30:10;;;;;;;5.45;1.80;;;;;;;18.86;69.53;100484.36;1712774;83;21165;-80
2021/06/19 01:32:39;;;;;;;5.22;1.40;;;;;;;18.86;69.67;100487.13;1712389;83;21181;-81
2021/06/19 01:35:08;;;;;;;4.35;1.75;;;;;;;18.84;69.58;100488.00;1725835;80;21331;-74
2021/06/19 01:37:37;;;;;;;7.75;1.67;;;;;;;18.81;69.58;100489.14;1718540;83;21272;-85
2021/06/19 01:40:13;;;;;;;5.42;1.87;;;;;;;18.79;70.00;100493.61;1693790;82;21265;-73
2021/06/19 01:42:44;;;;;;;7.40;1.50;;;;;;;18.78;69.69;100494.72;1706730;83;21149;-76
2021/06/19 01:45:16;;;;;;;5.42;1.70;;;;;;;18.77;69.74;100495.83;1717098;82;21246;-83
2021/06/19 01:47:44;;;;;;;5.12;1.75;;;;;;;18.77;69.86;100496.41;1730178;81;21385;-74
2021/06/19 01:50:17;;;;;;;5.03;1.70;;;;;;;18.75;70.31;100498.64;1736197;81;21133;-74
2021/06/19 01:52:45;;;;;;;6.42;1.70;;;;;;;18.71;70.04;100497.59;1705998;81;21488;-73
2021/06/19 01:55:14;;;;;;;4.33;1.50;;;;;;;18.70;70.21;100498.14;1708631;82;21317;-75
2021/06/19 01:57:42;;;;;;;;;;;;;;;18.70;70.23;100510.63;1720536;83;21165;-74
2021/06/19 02:00:13;;;;;;;;;;;;;;;18.67;70.34;100506.25;1735798;80;20190;-74
2021/06/19 02:02:41;;;;;;;;;;;;;;;18.63;70.52;100509.33;1724484;83;20283;-74
2021/06/19 02:05:10;;;;;;;;;;;;;;;18.61;70.50;100508.25;1726702;81;20536;-74
2021/06/19 02:07:51;;;;;;;;;;;;;;;18.59;70.49;100511.88;1739720;82;20499;-73
2021/06/19 02:10:21;;;;;;;;;;;;;;;18.60;71.09;100516.84;1740645;81;20177;-74
2021/06/19 02:12:49;;;;;;;;;;;;;;;18.59;70.95;100520.76;1749718;82;20246;-74
2021/06/19 02:15:19;;;;;;;;;;;;;;;18.59;70.84;100519.38;1753962;80;20210;-73
2021/06/19 02:17:47;;;;;;;;;;;;;;;18.56;70.93;100527.72;1738232;82;20576;-73
2021/06/19 02:20:15;;;;;;;;;;;;;;;18.53;71.27;100524.70;1717832;83;20501;-74
2021/06/19 02:22:43;;;;;;;;;;;;;;;18.52;71.16;100517.52;1692866;82;20277;-74
2021/06/19 02:25:13;;;;;;;;;;;;;;;18.51;71.67;100524.17;1697975;83;20185;-75
2021/06/19 02:27:58;;;;;;;;;;;;;;;18.48;71.32;100535.28;1730088;82;20197;-74
2021/06/19 02:30:27;;;;;;;;;;;;;;;18.47;71.41;100529.46;1738659;82;20523;-76
2021/06/19 02:32:55;;;;;;;;;;;;;;;18.45;71.26;100528.91;1732754;80;20217;-77
2021/06/19 02:35:26;;;;;;;;;;;;;;;18.44;71.32;100533.37;1715519;82;20177;-76
2021/06/19 02:37:54;;;;;;;;;;;;;;;18.43;71.67;100533.09;1724140;81;20610;-77
2021/06/19 02:40:21;;;;;;;;;;;;;;;18.43;71.74;100534.48;1725209;83;20274;-75
2021/06/19 02:42:49;;;;;;;;;;;;;;;18.44;71.26;100537.53;1735506;82;20608;-75
2021/06/19 02:45:17;;;;;;;;;;;;;;;18.45;71.68;100539.16;1781849;80;20194;-75
2021/06/19 02:47:46;;;;;;;;;;;;;;;18.44;71.23;100541.13;1727171;82;20247;-75
2021/06/19 02:50:15;;;;;;;;;;;;;;;18.46;71.05;100539.44;1740091;82;20558;-75
2021/06/19 02:52:45;;;;;;;;;;;;;;;18.47;71.54;100542.52;1739125;81;20177;-78
2021/06/19 02:55:20;;;;;;;;;;;;;;;18.47;71.17;100536.98;1755008;82;20231;-75
2021/06/19 02:57:48;;;;;;;;;;;;;;;18.49;70.99;100547.20;1708758;82;20196;-75
2021/06/19 03:00:17;;;;;;;;;;;;;;;18.52;70.72;100543.85;1709171;84;20196;-75
2021/06/19 03:02:45;;;;;;;;;;;;;;;18.53;71.02;100544.93;1709288;84;20516;-75
2021/06/19 03:05:16;;;;;;;;;;;;;;;18.54;70.59;100547.16;1747913;81;20189;-74
2021/06/19 03:07:43;;;;;;;;;;;;;;;18.57;70.85;100545.18;1754831;82;20179;-75
2021/06/19 03:10:13;;;;;;;;;;;;;;;18.59;70.94;100558.19;1713406;82;20184;-74
2021/06/19 03:12:41;;;;;;;;;;;;;;;18.60;70.40;100550.11;1709715;84;20189;-72
2021/06/19 03:15:09;;;;;;;;;;;;;;;18.62;70.30;100552.06;1710177;82;20355;-71
2021/06/19 03:17:37;;;;;;;;;;;;;;;18.64;70.34;100552.03;1720058;83;20192;-73
2021/06/19 03:20:05;;;;;;;;;;;;;;;18.68;70.64;100549.47;1720338;81;20179;-71
2021/06/19 03:22:42;;;;;;;;;;;;;;;18.70;70.36;100552.77;1720006;83;20213;-73
2021/06/19 03:25:10;;;;;;;;;;;;;;;18.73;70.37;100548.03;1726147;81;20179;-73
2021/06/19 03:27:38;;;;;;;;;;;;;;;18.78;69.98;100547.97;1712668;82;20205;-74
2021/06/19 03:30:07;;;;;;;;;;;;;;;18.82;70.06;100553.20;1731174;81;20182;-75
2021/06/19 03:32:36;;;;;;;;;;;;;;;18.88;70.16;100553.39;1715080;83;20244;-75
2021/06/19 03:35:05;;;;;;;;;;;;;;;18.92;69.74;100552.49;1714636;81;20183;-75
2021/06/19 03:37:33;;;;;;;;;;;;;;;18.96;69.41;100550.80;1714939;84;20196;-75
2021/06/19 03:40:01;;;;;;;;;;;;;;;19.03;69.17;100557.36;1720207;81;20191;-75
2021/06/19 03:42:29;;;;;;;;;;;;;;;19.07;69.03;100559.83;1720033;83;20289;-74
2021/06/19 03:44:57;;;;;;;;;;;;;;;19.13;68.97;100555.01;1719951;83;20207;-74
2021/06/19 03:47:24;;;;;;;;;;;;;;;19.19;68.99;100558.83;1733977;81;20191;-73
2021/06/19 03:49:52;;;;;;;;;;;;;;;19.23;68.49;100555.70;1736842;83;20195;-78
2021/06/19 03:52:19;;;;;;;;;;;;;;;19.29;68.71;100557.85;1721711;81;20633;-80
2021/06/19 03:54:48;;;;;;;;;;;;;;;19.36;68.65;100558.30;1725955;82;20191;-81
2021/06/19 03:57:31;;;;;;;;;;;;;;;19.41;68.37;100564.64;1722035;81;20488;-82
2021/06/19 03:59:59;;;;;;;;;;;;;;;19.46;68.02;100563.19;1733134;82;20248;-75
2021/06/19 04:02:27;;;;;;;;;;;;;;;19.54;67.89;100559.73;1722222;81;20490;-82
2021/06/19 04:04:55;;;;;;;;;;;;;;;19.60;67.79;100558.55;1730145;82;20188;-82
2021/06/19 04:07:23;;;;;;;;;;;;;;;19.66;67.49;100551.53;1727006;81;20595;-81
2021/06/19 04:09:52;;;;;;;;;;;;;;;19.73;67.07;100558.91;1729941;82;20217;-82
2021/06/19 04:12:23;;;;;;;;;;;;;;;19.81;67.30;100561.01;1722860;81;20395;-76
2021/06/19 04:14:52;;;;;;;;;;;;;;;19.84;67.07;100558.44;1732313;82;20161;-80
2021/06/19 04:17:19;;;;;;;;;;;;;;;19.91;66.45;100556.67;1738334;81;21720;-83
2021/06/19 04:19:47;;;;;;;;;;;;;;;19.95;66.15;100552.98;1721538;83;20191;-74
2021/06/19 04:22:15;;;;;;;;;;;;;;;20.02;65.86;100545.63;1721925;81;20272;-74
2021/06/19 04:24:42;;;;;;;;;;;;;;;20.10;65.53;100551.33;1721267;82;20248;-73
2021/06/19 04:27:20;;;;;;;;;;;;;;;20.18;64.28;100550.64;1721295;83;20204;-73
2021/06/19 04:29:48;;;;;;;;;;;;;;;20.26;64.54;100544.98;1726319;81;20180;-83
2021/06/19 04:32:15;;;;;;;;;;;;;;;20.35;64.08;100548.69;1741533;82;20228;-74
2021/06/19 04:34:43;;;;;;;;;;;;;;;20.42;64.00;100546.89;1721115;81;20291;-83
2021/06/19 04:37:12;;;;;;;;;;;;;;;20.50;63.26;100558.14;1740249;82;20249;-83
2021/06/19 04:39:52;;;;;;;;;;;;;;;20.59;63.18;100550.72;1688738;82;20221;-83
2021/06/19 04:42:14;;;;;;;;;;;;;;;20.65;63.09;100555.06;1721582;82;20573;-73
2021/06/19 04:47:11;;;;;;;;;;;;;;;20.81;62.38;100544.47;1721610;83;20432;-82
2021/06/19 04:49:39;;;;;;;;;;;;;;;20.87;62.08;100546.81;1716048;81;20204;-72
2021/06/19 04:52:10;;;;;;;;;;;;;;;20.95;61.56;100550.83;1713027;82;20601;-81
2021/06/19 04:54:38;;;;;;;;;;;;;;;21.03;60.53;100554.84;1739016;81;20200;-76
2021/06/19 04:57:06;;;;;;;;;;;;;;;21.10;61.15;100552.53;1741907;82;20141;-74
2021/06/19 04:59:35;;;;;;;;;;;;;;;21.16;60.90;100552.09;1745038;81;20250;-81
2021/06/19 05:02:03;;;;;;;;;;;;;;;21.23;61.24;100553.88;1723466;82;20795;-75
2021/06/19 05:04:31;;;;;;;;;;;;;;;21.30;60.97;100547.91;1720389;81;20207;-77
2021/06/19 05:07:00;;;;;;;;;;;;;;;21.36;60.70;100548.86;1722168;82;20545;-76
2021/06/19 05:09:28;;;;;;;;;;;;;;;21.43;60.87;100549.25;1740109;82;20524;-76
2021/06/19 05:11:56;;;;;;;;;;;;;;;21.49;59.99;100553.58;1721845;81;20200;-78
2021/06/19 05:14:24;;;;;;;;;;;;;;;21.55;59.05;100547.33;1721313;83;20184;-80
2021/06/19 05:16:51;;;;;;;;;;;;;;;21.62;58.88;100549.10;1720914;81;20286;-81
2021/06/19 05:19:19;;;;;;;;;;;;;;;21.69;59.16;100548.66;1733385;82;20191;-76
2021/06/19 05:21:46;;;;;;;;;;;;;;;21.76;59.05;100547.64;1720777;81;20255;-81
2021/06/19 05:24:14;;;;;;;;;;;;;;;21.82;58.95;100543.04;1728255;82;20183;-82
2021/06/19 05:26:41;;;;;;;;;;;;;;;21.91;58.10;100541.16;1723682;81;20508;-76
2021/06/19 05:29:09;;;;;;;;;;;;;;;21.99;57.77;100545.98;1703285;84;20193;-83
2021/06/19 05:31:37;;;;;;;;;;;;;;;22.04;58.08;100545.85;1705661;81;20515;-83
2021/06/19 05:34:04;;;;;;;;;;;;;;;22.10;57.40;100544.59;1729807;82;20413;-82
2021/06/19 05:36:32;;;;;;;;;;;;;;;22.18;56.77;100543.56;1732201;81;20200;-82
2021/06/19 05:39:00;;;;;;;;;;;;;;;22.24;56.40;100542.30;1718389;82;20160;-82
2021/06/19 05:41:28;;;;;;;;;;;;;;;22.28;56.66;100539.12;1690994;82;20248;-73
2021/06/19 05:43:57;;;;;;;;;;;;;;;22.34;56.36;100543.42;1717104;81;20572;-74
2021/06/19 05:46:25;;;;;;;;;;;;;;;22.41;56.01;100547.97;1715887;84;20212;-82
2021/06/19 05:48:57;;;;;;;;;;;;;;;22.49;56.22;100537.44;1705911;81;20201;-74
2021/06/19 05:51:23;;;;;;;;;;;;;;;22.54;56.03;100541.48;1703480;84;20229;-82
2021/06/19 05:53:50;;;;;;;;;;;;;;;22.61;55.70;100537.09;1717098;81;20252;-82
2021/06/19 05:56:19;;;;;;;;;;;;;;;22.69;54.86;100538.30;1729651;81;20503;-75
2021/06/19 05:58:47;;;;;;;;;;;;;;;22.77;55.28;100540.88;1723963;81;20255;-81
2021/06/19 06:01:14;;;;;;;;;;;;;;;22.84;55.07;100542.05;1722457;82;20241;-74
2021/06/19 06:03:42;;;;;;;;;;;;;;;22.92;55.02;100537.64;1702585;82;20376;-75
2021/06/19 06:06:10;;;;;;;;;;;;;;;22.97;54.63;100541.08;1729474;82;20176;-75
2021/06/19 06:08:37;;;;;;;;;;;;;;;23.04;54.79;100543.42;1717920;81;20220;-80
2021/06/19 06:11:05;;;;;;;;;;;;;;;23.11;55.06;100544.59;1714773;84;20191;-77
2021/06/19 06:13:34;;;;;;;;;;;;;;;23.17;54.33;100546.66;1721579;81;20516;-80
2021/06/19 06:16:04;;;;;;;;;;;;;;;23.21;55.09;100545.67;1723742;83;20530;-79
2021/06/19 06:18:32;;;;;;;;;;;;;;;23.24;55.00;100546.43;1716222;84;20212;-75
2021/06/19 06:21:01;;;;;;;;;;;;;;;23.30;54.96;100545.70;1715484;81;20191;-74
2021/06/19 06:23:29;;;;;;;;;;;;;;;23.35;54.28;100547.75;1725597;82;20196;-73
2021/06/19 06:25:56;;;;;;;;;;;;;;;23.44;53.80;100551.16;1719963;81;20212;-74
2021/06/19 06:28:24;;;;;;;;;;;;;;;23.50;54.29;100542.31;1716538;82;20187;-75
2021/06/19 06:30:51;;;;;;;;;;;;;;;23.55;54.39;100549.14;1730039;81;20192;-78
2021/06/19 06:33:20;;;;;;;;;;;;;;;23.62;53.81;100542.48;1731428;82;20371;-79
2021/06/19 06:35:47;;;;;;;;;;;;;;;23.67;53.98;100547.08;1732486;82;20177;-74
2021/06/19 06:38:16;;;;;;;;;;;;;;;23.72;54.44;100551.10;1745445;82;20181;-79
2021/06/19 06:40:43;;;;;;;;;;;;;;;23.76;53.96;100545.09;1748208;80;20221;-79
2021/06/19 06:43:10;;;;;;;;;;;;;;;23.81;53.67;100549.12;1735451;82;20250;-75
2021/06/19 06:45:38;;;;;;;;;;;;;;;23.83;52.41;100545.44;1730774;81;20288;-75
2021/06/19 06:48:06;;;;;;;;;;;;;;;23.86;52.97;100532.17;1728313;81;20191;-79
2021/06/19 06:50:36;;;;;;;;;;;;;;;23.90;53.07;100535.41;1720835;81;20247;-78
2021/06/19 06:53:03;;;;;;;;;;;;;;;23.96;52.86;100530.44;1728989;82;20256;-80
2021/06/19 06:55:31;;;;;;;;;;;;;;;24.02;53.06;100538.91;1735729;82;20223;-80
2021/06/19 06:57:59;;;;;;;;;;;;;;;24.06;51.49;100534.29;1721961;81;20264;-74
2021/06/19 07:00:26;;;;;;;;;;;;;;;24.10;52.08;100532.52;1721345;83;20180;-75
2021/06/19 07:02:54;;;;;;;;;;;;;;;24.16;51.81;100527.58;1726539;81;20197;-82
2021/06/19 07:05:21;;;;;;;;;;;;;;;24.22;51.39;100531.83;1735067;82;20504;-74
2021/06/19 07:07:51;;;;;;;;;;;;;;;24.27;51.72;100538.08;1728240;81;20519;-75
2021/06/19 07:10:21;;;;;;;;;;;;;;;24.33;51.60;100540.95;1733800;82;20521;-81
2021/06/19 07:12:48;;;;;;;;;;;;;;;24.38;52.83;100539.38;1723881;81;20169;-74
2021/06/19 07:15:17;;;;;;;;;;;;;;;24.43;53.23;100541.16;1733334;81;20578;-77
2021/06/19 07:17:48;;;;;;;;;;;;;;;24.49;52.35;100535.04;1722621;81;20241;-81
2021/06/19 07:20:18;;;;;;;;;;;;;;;24.56;52.44;100536.77;1733556;82;20178;-77
2021/06/19 07:22:45;;;;;;;;;;;;;;;24.61;50.74;100535.19;1729754;81;20192;-78
2021/06/19 07:25:13;;;;;;;;;;;;;;;24.66;50.91;100537.55;1729231;82;20224;-77
2021/06/19 07:27:42;;;;;;;;;;;;;;;24.70;50.65;100534.30;1726481;81;20184;-83
2021/06/19 07:30:11;;;;;;;;;;;;;;;24.75;51.51;100536.34;1721664;82;20264;-82
2021/06/19 07:32:38;;;;;;;;;;;;;;;24.80;51.25;100540.96;1737421;82;20241;-80
2021/06/19 07:35:07;;;;;;;;;;;;;;;24.86;50.70;100532.63;1728211;81;20359;-74
2021/06/19 07:37:36;;;;;;;;;;;;;;;24.91;50.60;100543.64;1730793;82;20569;-76
2021/06/19 07:40:05;;;;;;;;;;;;;;;24.96;50.72;100535.05;1720677;81;20180;-74
2021/06/19 07:42:35;;;;;;;;;;;;;;;24.94;49.53;100540.17;1728190;82;20218;-72
2021/06/19 07:45:05;;;;;;;;;;;;;;;24.96;50.88;100533.64;1726308;81;20616;-72
2021/06/19 07:47:32;;;;;;;;;;;;;;;25.00;50.40;100529.00;1725414;81;20290;-73
2021/06/19 07:50:00;;;;;;;;;;;;;;;25.06;49.79;100535.48;1719438;81;20227;-72
2021/06/19 07:52:27;;;;;;;;;;;;;;;25.10;49.55;100533.64;1719608;81;20199;-74
2021/06/19 07:54:55;;;;;;;;;;;;;;;25.12;49.01;100522.91;1726613;81;20186;-74
2021/06/19 07:57:23;;;;;;;;;;;;;;;25.16;48.50;100530.89;1730613;83;20596;-75
2021/06/19 07:59:51;;;;;;;;;;;;;;;25.23;49.51;100520.54;1724838;81;20197;-74
2021/06/19 08:02:19;;;;;;;;;;;;;;;25.29;50.10;100522.56;1721774;82;20755;-75
2021/06/19 08:04:47;;;;;;;;;;;;;;;25.33;49.43;100516.51;1703347;81;20249;-74
2021/06/19 08:07:15;;;;;;;;;;;;;;;25.38;49.65;100511.53;1719380;83;20191;-74
2021/06/19 08:09:45;;;;;;;;;;;;;;;25.44;49.72;100525.59;1719319;81;20204;-74
2021/06/19 08:12:12;;;;;;;;;;;;;;;25.47;48.09;100512.34;1747033;81;20177;-74
2021/06/19 08:14:42;;;;;;;;;;;;;;;25.48;46.91;100509.75;1726952;81;20208;-74
2021/06/19 08:17:17;;;;;;;;;;;;;;;25.49;47.71;100511.41;1718935;82;20219;-75
2021/06/19 08:19:45;;;;;;;;;;;;;;;25.49;48.27;100512.81;1684414;83;20191;-74
2021/06/19 08:22:13;;;;;;;;;;;;;;;25.51;49.86;100504.05;1720681;82;20181;-71
2021/06/19 08:24:40;;;;;;;;;;;;;;;25.55;50.41;100501.61;1708121;83;20244;-73
2021/06/19 08:27:08;;;;;;;;;;;;;;;25.58;48.75;100501.51;1715725;82;20412;-71
2021/06/19 08:29:38;;;;;;;;;;;;;;;25.57;49.21;100506.31;1712362;83;20283;-77
2021/06/19 08:32:08;;;;;;;;;;;;;;;25.57;49.48;100502.69;1718954;82;20238;-74
2021/06/19 08:34:35;;;;;;;;;;;;;;;25.59;48.42;100501.18;1739880;80;20650;-71
2021/06/19 08:37:03;;;;;;;;;;;;;;;25.63;48.19;100499.89;1713625;80;20192;-78
2021/06/19 08:39:31;;;;;;;;;;;;;;;25.67;48.37;100496.66;1705749;82;20293;-74
2021/06/19 08:41:59;;;;;;;;;;;;;;;25.68;47.64;100496.30;1744540;80;20193;-76
2021/06/19 08:44:27;;;;;;;;;;;;;;;25.69;47.87;100497.96;1729825;80;20195;-79
2021/06/19 08:46:57;;;;;;;;;;;;;;;25.70;48.47;100506.59;1722240;81;20193;-80
2021/06/19 08:49:26;;;;;;;;;;;;;;;25.74;46.77;100501.95;1713543;80;20203;-79
2021/06/19 08:51:54;;;;;;;;;;;;;;;25.76;46.64;100495.41;1727726;82;20248;-79
2021/06/19 08:54:21;;;;;;;;;;;;;;;25.81;47.51;100492.97;1731372;80;20197;-79
2021/06/19 08:56:49;;;;;;;;;;;;;;;25.88;47.71;100499.45;1765205;80;20294;-74
2021/06/19 08:59:17;;;;;;;;;;;;;;;25.91;46.13;100491.75;1733471;80;20546;-79
2021/06/19 09:01:45;;;;;;;;;;;;;;;25.95;45.87;100494.09;1713649;84;20236;-75
2021/06/19 09:04:12;;;;;;;;;;;;;;;25.97;46.07;100495.38;1728720;80;20536;-76
2021/06/19 09:06:43;;;;;;;;;;;;;;;25.99;45.93;100489.42;1754150;81;20195;-79
2021/06/19 09:09:16;;;;;;;;;;;;;;;26.01;45.47;100487.91;1724662;82;20192;-79
2021/06/19 09:11:47;;;;;;;;;;;;;;;26.01;44.83;100496.92;1708924;84;20255;-78
2021/06/19 09:14:16;;;;;;;;;;;;;;;26.04;46.05;100483.02;1702757;81;20232;-78
2021/06/19 09:16:59;;;;;;;;;;;;;;;26.08;46.41;100490.16;1720668;83;20197;-79
2021/06/19 09:19:29;;;;;;;;;;;;;;;26.11;46.19;100493.69;1720166;81;20180;-74
2021/06/19 09:22:17;;;;;;;;;;;;;;;26.15;46.25;100489.05;1750539;82;20560;-78
2021/06/19 09:24:57;;;;;;;;;;;;;;;26.17;46.76;100487.53;1715398;82;20191;-78
2021/06/19 09:27:40;;;;;;;;;;;;;;;26.25;46.73;100489.42;1719799;83;20248;-79
2021/06/19 09:30:12;;;;;;;;;;;;;;;26.29;45.26;100490.94;1722873;81;20184;-79
2021/06/19 09:32:46;;;;;;;;;;;;;;;26.29;45.83;100498.77;1714665;84;20204;-74
2021/06/19 09:35:29;;;;;;;;;;;;;;;26.33;46.11;100484.30;1714643;81;20180;-75
2021/06/19 09:38:13;;;;;;;;;;;;;;;26.36;45.28;100479.98;1714622;84;20183;-79
2021/06/19 09:40:45;;;;;;;;;;;;;;;26.40;45.40;100485.94;1722203;81;20206;-75
2021/06/19 09:43:20;;;;;;;;;;;;;;;26.49;46.05;100477.39;1744191;82;20214;-79
2021/06/19 09:46:09;;;;;;;;;;;;;;;26.54;45.47;100478.56;1737187;81;20705;-74
2021/06/19 09:48:40;;;;;;;;;;;;;;;26.52;44.83;100471.09;1715030;84;20176;-78
2021/06/19 09:51:16;;;;;;;;;;;;;;;26.51;45.70;100477.89;1679760;83;20565;-74
2021/06/19 09:53:47;;;;;;;;;;;;;;;26.54;45.78;100470.76;1717131;83;20291;-79
2021/06/19 09:56:15;;;;;;;;;;;;;;;26.56;44.36;100472.62;1717635;81;20955;-80
2021/06/19 09:58:46;;;;;;;;;;;;;;;26.55;45.28;100467.59;1714712;83;20498;-73
2021/06/19 10:01:22;;;;;;;;;;;;;;;26.59;44.62;100466.31;1710843;81;20192;-74
2021/06/19 10:03:56;;;;;;;;;;;;;;;26.65;45.15;100460.10;1713555;84;20243;-76
2021/06/19 10:06:25;;;;;;;;;;;;;;;26.72;45.17;100455.29;1714688;84;20176;-74
2021/06/19 10:08:53;;;;;;;;;;;;;;;26.77;43.41;100454.51;1729524;81;20478;-74
2021/06/19 10:11:24;;;;;;;;;;;;;;;26.82;44.54;100459.06;1729909;83;20250;-74
2021/06/19 10:13:51;;;;;;;;;;;;;;;26.86;44.96;100447.37;1716681;81;20188;-74
2021/06/19 10:16:19;;;;;;;;;;;;;;;26.92;44.14;100458.59;1714899;84;20248;-79
2021/06/19 10:18:46;;;;;;;;;;;;;;;26.94;44.30;100452.05;1727699;81;20181;-80
2021/06/19 10:21:14;;;;;;;;;;;;;;;26.96;43.61;100456.15;1734721;83;20176;-74
2021/06/19 10:23:43;;;;;;;;;;;;;;;27.01;43.44;100458.72;1722894;81;20199;-80
2021/06/19 10:26:11;;;;;;;;;;;;;;;27.00;43.81;100447.23;1714745;83;20573;-73
2021/06/19 10:28:44;;;;;;;;;;;;;;;27.03;43.44;100456.95;1713807;81;20264;-76
2021/06/19 10:31:18;;;;;;;;;;;;;;;27.07;43.15;100455.05;1714710;84;20190;-74
2021/06/19 10:33:45;;;;;;;;;;;;;;;27.09;43.20;100461.98;1719379;81;20250;-78
2021/06/19 10:36:13;;;;;;;;;;;;;;;27.08;43.14;100453.89;1731278;83;20513;-78
2021/06/19 10:38:51;;;;;;;;;;;;;;;27.14;43.17;100455.88;1727709;81;20179;-79
2021/06/19 10:41:20;;;;;;;;;;;;;;;27.20;43.70;100451.05;1716221;83;20907;-80
2021/06/19 10:43:49;;;;;;;;;;;;;;;27.25;44.40;100454.23;1715720;81;20263;-74
2021/06/19 10:46:33;;;;;;;;;;;;;;;27.29;44.54;100455.14;1716360;84;20253;-74
2021/06/19 10:49:06;;;;;;;;;;;;;;;27.32;43.50;100451.63;1684683;81;20192;-79
2021/06/19 10:51:33;;;;;;;;;;;;;;;27.35;43.70;100448.11;1711541;84;20239;-79
2021/06/19 10:54:19;;;;;;;;;;;;;;;27.39;43.48;100441.44;1735069;83;20178;-74
2021/06/19 10:56:57;;;;;;;;;;;;;;;27.44;44.35;100451.61;1724620;83;20541;-80
2021/06/19 10:59:31;;;;;;;;;;;;;;;27.46;44.25;100434.62;1716320;84;20212;-74
2021/06/19 11:02:00;;;;;;;;;;;;;;;27.52;44.47;100445.03;1715984;81;20187;-74
2021/06/19 11:04:42;;;;;;;;;;;;;;;27.56;44.21;100438.91;1716343;84;20485;-74
2021/06/19 11:07:22;;;;;;;;;;;;;;;27.57;43.96;100431.54;1744699;81;20515;-75
2021/06/19 11:09:50;;;;;;;;;;;;;;;27.57;44.22;100428.73;1756741;82;20183;-76
2021/06/19 11:12:25;;;;;;;;;;;;;;;27.58;43.66;100428.11;1712079;82;20521;-79
2021/06/19 11:15:04;;;;;;;;;;;;;;;27.59;45.23;100422.15;1721109;83;21129;-74
2021/06/19 11:17:35;;;;;;;;;;;;;;;27.60;44.50;100428.59;1721705;81;20179;-78
2021/06/19 11:20:05;;;;;;;;;;;;;;;27.62;43.78;100416.40;1721335;83;20169;-79
2021/06/19 11:22:39;;;;;;;;;;;;;;;27.65;43.34;100422.72;1689939;83;20672;-74
2021/06/19 11:25:21;;;;;;;;;;;;;;;27.69;42.87;100416.59;1716436;84;20175;-74
2021/06/19 11:28:09;;;;;;;;;;;;;;;27.73;42.84;100412.48;1715682;81;20208;-79
2021/06/19 11:30:43;;;;;;;;;;;;;;;27.75;43.14;100425.02;1716227;83;20220;-75
2021/06/19 11:33:25;;;;;;;;;;;;;;;27.76;42.45;100413.14;1684865;83;20219;-78
2021/06/19 11:35:55;;;;;;;;;;;;;;;27.73;42.57;100418.91;1716440;84;20588;-80
2021/06/19 11:38:22;;;;;;;;;;;;;;;27.73;43.20;100416.09;1715745;81;20187;-79
2021/06/19 11:40:50;;;;;;;;;;;;;;;27.76;43.18;100406.94;1716357;83;20184;-74
2021/06/19 11:43:31;;;;;;;;;;;;;;;27.82;43.35;100407.50;1715996;81;20215;-79
2021/06/19 11:45:59;;;;;;;;;;;;;;;27.85;43.64;100403.39;1714517;84;20481;-81
2021/06/19 11:48:28;;;;;;;;;;;;;;;27.89;43.09;100400.66;1715642;81;20243;-79
2021/06/19 11:51:03;;;;;;;;;;;;;;;27.92;44.02;100395.14;1716545;84;20209;-73
2021/06/19 11:53:36;;;;;;;;;;;;;;;27.98;43.49;100398.50;1687864;83;20224;-75
2021/06/19 11:56:12;;;;;;;;;;;;;;;28.01;42.67;100385.13;1722150;83;20237;-78
2021/06/19 11:58:45;;;;;;;;;;;;;;;27.98;43.48;100397.09;1728407;81;20251;-78
2021/06/19 12:01:14;;;;;;;;;;;;;;;27.98;42.98;100390.86;1716441;84;20187;-74
2021/06/19 12:03:42;;;;;;;;;;;;;;;28.02;43.08;100393.22;1719314;81;20250;-75
2021/06/19 12:06:09;;;;;;;;;;;;;;;28.07;43.48;100390.72;1731567;83;20211;-76
2021/06/19 12:08:37;;;;;;;;;;;;;;;28.09;43.25;100382.14;1703261;81;20178;-78
2021/06/19 12:11:05;;;;;;;;;;;;;;;28.13;43.35;100377.41;1721500;82;20180;-73
2021/06/19 12:13:40;;;;;;;;;;;;;;;28.16;43.65;100379.51;1718334;82;20218;-80
2021/06/19 12:16:09;;;;;;;;;;;;;;;28.18;42.57;100379.95;1731214;81;20181;-82
2021/06/19 12:18:38;;;;;;;;;;;;;;;28.15;43.21;100379.88;1722094;82;20495;-83
2021/06/19 12:21:11;;;;;;;;;;;;;;;28.12;44.12;100384.83;1727777;81;20189;-85
2021/06/19 12:23:40;;;;;;;;;;;;;;;28.13;41.64;100374.59;1718963;81;20231;-85
2021/06/19 12:26:09;;;;;;;;;;;;;;;28.07;42.96;100376.07;1722706;81;20551;-79
2021/06/19 12:28:37;;;;;;;;;;;;;;;28.04;43.14;100371.74;1715042;81;20298;-83
2021/06/19 12:31:05;;;;;;;;;;;;;;;27.99;42.69;100378.44;1717931;81;20282;-83
2021/06/19 12:33:33;;;;;;;;;;;;;;;27.92;42.67;100371.22;1717267;83;20187;-80
2021/06/19 12:36:03;;;;;;;;;;;;;;;27.92;43.52;100374.61;1703570;83;20187;-80
2021/06/19 12:38:31;;;;;;;;;;;;;;;27.90;42.85;100376.98;1717554;82;20516;-80
2021/06/19 12:41:00;;;;;;;;;;;;;;;27.89;42.81;100370.53;1713645;81;20173;-77